createdAt,value
2023-05-22T00:00:20.892Z,12.00
2023-05-22T00:02:48.415Z,12.00
2023-05-22T00:05:18.278Z,10.13
2023-05-22T00:07:46.288Z,12.00
2023-05-22T00:10:13.211Z,10.87
2023-05-22T00:12:40.336Z,12.30
2023-05-22T00:15:08.133Z,10.17
2023-05-22T00:17:35.413Z,10.93
2023-05-22T00:20:10.876Z,10.33
2023-05-22T00:22:37.953Z,10.47
2023-05-22T00:25:06.260Z,10.33
2023-05-22T00:27:34.032Z,15.47
2023-05-22T00:30:01.258Z,13.63
2023-05-22T00:32:28.739Z,16.40
2023-05-22T00:34:55.665Z,14.30
2023-05-22T00:37:23.198Z,12.83
2023-05-22T00:39:50.156Z,11.17
2023-05-22T00:42:18.390Z,12.50
2023-05-22T00:44:45.821Z,13.37
2023-05-22T00:47:12.939Z,13.37
2023-05-22T00:49:41.473Z,12.80
2023-05-22T00:52:11.111Z,11.70
2023-05-22T00:54:38.793Z,9.43
2023-05-22T00:57:06.498Z,14.77
2023-05-22T00:59:33.625Z,12.67
2023-05-22T01:02:01.523Z,12.50
2023-05-22T01:04:32.802Z,11.10
2023-05-22T01:07:02.808Z,11.17
2023-05-22T01:09:30.243Z,12.30
2023-05-22T01:12:31.018Z,10.67
2023-05-22T01:15:43.898Z,12.33
2023-05-22T01:18:33.613Z,13.30
2023-05-22T01:21:24.598Z,12.57
2023-05-22T01:24:19.366Z,12.87
2023-05-22T01:27:28.451Z,13.33
2023-05-22T01:30:38.786Z,11.87
2023-05-22T01:33:09.304Z,10.97
2023-05-22T01:35:40.709Z,11.93
2023-05-22T01:38:09.567Z,13.00
2023-05-22T01:40:38.088Z,11.33
2023-05-22T01:43:05.275Z,13.50
2023-05-22T01:45:32.581Z,16.60
2023-05-22T01:47:59.466Z,14.80
2023-05-22T01:50:26.575Z,12.70
2023-05-22T01:53:14.228Z,10.50
2023-05-22T01:55:59.362Z,11.90
2023-05-22T01:58:37.562Z,10.83
2023-05-22T02:01:06.467Z,11.93
2023-05-22T02:03:36.226Z,13.43
2023-05-22T02:06:08.744Z,10.30
2023-05-22T02:08:41.748Z,12.27
2023-05-22T02:11:13.646Z,13.53
2023-05-22T02:13:41.814Z,12.37
2023-05-22T02:16:09.626Z,15.87
2023-05-22T02:18:36.575Z,10.33
2023-05-22T02:21:05.695Z,12.10
2023-05-22T02:23:32.565Z,11.90
2023-05-22T02:25:59.533Z,8.90
2023-05-22T02:28:27.266Z,9.40
2023-05-22T02:30:54.147Z,11.10
2023-05-22T02:33:21.471Z,10.97
2023-05-22T02:35:50.175Z,9.93
2023-05-22T02:38:17.103Z,11.57
2023-05-22T02:40:45.002Z,10.17
2023-05-22T02:43:12.125Z,10.57
2023-05-22T02:45:39.042Z,8.53
2023-05-22T02:48:06.628Z,11.63
2023-05-22T02:50:33.558Z,9.57
2023-05-22T02:53:00.730Z,12.67
2023-05-22T02:55:27.563Z,11.93
2023-05-22T02:57:54.406Z,14.13
2023-05-22T03:00:22.610Z,10.47
2023-05-22T03:02:49.998Z,11.10
2023-05-22T03:05:17.965Z,11.00
2023-05-22T03:07:48.424Z,13.67
2023-05-22T03:10:15.688Z,11.47
2023-05-22T03:12:42.863Z,13.00
2023-05-22T03:15:11.400Z,10.00
2023-05-22T03:17:40.024Z,9.50
2023-05-22T03:20:08.711Z,13.50
2023-05-22T03:22:35.789Z,10.13
2023-05-22T03:25:04.274Z,12.40
2023-05-22T03:27:31.150Z,9.00
2023-05-22T03:29:58.162Z,13.27
2023-05-22T03:32:25.347Z,14.00
2023-05-22T03:34:52.199Z,12.93
2023-05-22T03:37:19.287Z,12.80
2023-05-22T03:39:47.134Z,11.57
2023-05-22T03:42:21.331Z,11.90
2023-05-22T03:44:49.302Z,15.17
2023-05-22T03:47:16.937Z,15.63
2023-05-22T03:49:43.860Z,13.23
2023-05-22T03:52:11.231Z,13.00
2023-05-22T03:54:38.243Z,14.53
2023-05-22T03:57:05.983Z,12.73
2023-05-22T03:59:33.082Z,14.57
2023-05-22T04:02:01.145Z,15.47
2023-05-22T04:04:28.968Z,11.97
2023-05-22T04:06:58.346Z,14.87
2023-05-22T04:09:35.530Z,14.73
2023-05-22T04:12:03.582Z,13.90
2023-05-22T04:14:30.699Z,13.37
2023-05-22T04:16:57.542Z,13.23
2023-05-22T04:19:24.672Z,14.70
2023-05-22T04:21:52.475Z,18.17
2023-05-22T04:24:19.626Z,14.20
2023-05-22T04:26:46.515Z,15.20
2023-05-22T04:29:14.355Z,15.63
2023-05-22T04:31:42.101Z,15.73
2023-05-22T04:34:15.146Z,13.57
2023-05-22T04:36:45.001Z,12.77
2023-05-22T04:39:12.910Z,14.37
2023-05-22T04:41:40.445Z,16.07
2023-05-22T04:44:07.632Z,20.43
2023-05-22T04:46:37.913Z,14.77
2023-05-22T04:49:04.823Z,18.80
2023-05-22T04:51:32.829Z,15.23
2023-05-22T04:53:59.972Z,16.27
2023-05-22T04:56:36.106Z,14.43
2023-05-22T04:59:05.455Z,13.57
2023-05-22T05:01:35.032Z,14.73
2023-05-22T05:04:03.916Z,15.17
2023-05-22T05:06:31.003Z,13.87
2023-05-22T05:08:58.074Z,15.67
2023-05-22T05:11:24.938Z,15.90
2023-05-22T05:13:51.854Z,14.67
2023-05-22T05:16:20.496Z,14.70
2023-05-22T05:18:47.468Z,15.70
2023-05-22T05:21:14.391Z,14.83
2023-05-22T05:23:41.697Z,16.00
2023-05-22T05:26:08.604Z,16.60
2023-05-22T05:28:35.546Z,17.20
2023-05-22T05:31:02.847Z,17.47
2023-05-22T05:33:47.772Z,20.00
2023-05-22T05:36:25.799Z,18.37
2023-05-22T05:38:54.180Z,18.03
2023-05-22T05:41:21.583Z,18.17
2023-05-22T05:43:53.828Z,17.83
2023-05-22T05:46:21.303Z,17.40
2023-05-22T05:48:48.238Z,20.50
2023-05-22T05:51:16.328Z,16.63
2023-05-22T05:53:43.989Z,17.77
2023-05-22T05:56:11.722Z,17.07
2023-05-22T05:58:38.749Z,17.07
2023-05-22T06:01:47.128Z,18.30
2023-05-22T06:04:20.064Z,17.67
2023-05-22T06:06:48.322Z,17.50
2023-05-22T06:09:15.364Z,19.57
2023-05-22T06:12:06.258Z,18.03
2023-05-22T06:14:33.407Z,18.77
2023-05-22T06:17:00.296Z,24.03
2023-05-22T06:19:27.285Z,16.60
2023-05-22T06:21:54.590Z,18.90
2023-05-22T06:24:21.745Z,17.80
2023-05-22T06:26:48.576Z,17.07
2023-05-22T06:29:15.494Z,21.07
2023-05-22T06:31:44.209Z,20.87
2023-05-22T06:34:11.219Z,23.13
2023-05-22T06:36:38.350Z,17.57
2023-05-22T06:39:05.238Z,19.40
2023-05-22T06:41:52.087Z,21.47
2023-05-22T06:44:18.988Z,18.37
2023-05-22T06:46:49.053Z,16.13
2023-05-22T06:49:22.402Z,16.07
2023-05-22T06:51:52.428Z,17.07
2023-05-22T06:54:21.168Z,18.00
2023-05-22T06:56:51.179Z,16.47
2023-05-22T06:59:20.930Z,16.50
2023-05-22T07:02:06.200Z,16.07
2023-05-22T07:04:54.184Z,16.73
2023-05-22T07:07:35.869Z,14.23
2023-05-22T07:10:03.417Z,14.73
2023-05-22T07:12:30.433Z,15.53
2023-05-22T07:14:59.923Z,15.10
2023-05-22T07:17:27.398Z,15.23
2023-05-22T07:19:56.269Z,14.00
2023-05-22T07:22:23.687Z,14.03
2023-05-22T07:24:50.671Z,13.63
2023-05-22T07:27:18.985Z,12.73
2023-05-22T07:29:48.248Z,12.63
2023-05-22T07:32:15.467Z,13.43
2023-05-22T07:34:44.312Z,14.33
2023-05-22T07:37:14.090Z,13.80
2023-05-22T07:39:42.461Z,11.77
2023-05-22T07:42:10.185Z,12.30
2023-05-22T07:44:43.766Z,12.00
2023-05-22T07:47:10.740Z,12.17
2023-05-22T07:49:37.834Z,12.80
2023-05-22T07:52:05.087Z,11.67
2023-05-22T07:54:31.945Z,11.10
2023-05-22T07:57:03.187Z,13.40
2023-05-22T07:59:34.257Z,11.30
2023-05-22T08:02:02.227Z,11.47
2023-05-22T08:04:30.025Z,12.30
2023-05-22T08:06:58.330Z,12.02
2023-05-22T08:09:25.336Z,12.68
2023-05-22T08:11:52.184Z,10.98
2023-05-22T08:14:19.032Z,11.38
2023-05-22T08:16:46.015Z,11.88
2023-05-22T08:19:13.130Z,12.25
2023-05-22T08:21:40.521Z,12.27
2023-05-22T08:24:08.486Z,11.60
2023-05-22T08:26:36.204Z,12.25
2023-05-22T08:29:03.549Z,13.40
2023-05-22T08:31:30.797Z,12.52
2023-05-22T08:34:02.256Z,11.27
2023-05-22T08:36:31.634Z,13.10
2023-05-22T08:38:58.524Z,11.82
2023-05-22T08:41:25.609Z,11.57
2023-05-22T08:43:52.947Z,11.95
2023-05-22T08:46:26.315Z,14.52
2023-05-22T08:48:57.963Z,13.88
2023-05-22T08:51:35.643Z,10.60
2023-05-22T08:54:08.239Z,11.35
2023-05-22T08:56:39.683Z,10.95
2023-05-22T08:59:10.836Z,11.73
2023-05-22T09:01:37.905Z,11.15
2023-05-22T09:04:05.184Z,11.20
2023-05-22T09:06:32.660Z,11.25
2023-05-22T09:09:00.178Z,12.73
2023-05-22T09:11:27.526Z,14.82
2023-05-22T09:14:11.167Z,10.73
2023-05-22T09:16:49.689Z,11.43
2023-05-22T09:19:17.056Z,12.25
2023-05-22T09:21:48.081Z,11.85
2023-05-22T09:24:15.198Z,11.70
2023-05-22T09:26:42.299Z,11.95
2023-05-22T09:29:09.546Z,10.98
2023-05-22T09:31:44.755Z,12.88
2023-05-22T09:34:17.846Z,12.38
2023-05-22T09:36:44.838Z,11.90
2023-05-22T09:39:11.823Z,13.73
2023-05-22T09:41:39.909Z,13.05
2023-05-22T09:44:15.635Z,13.77
2023-05-22T09:46:46.394Z,12.68
2023-05-22T09:49:16.175Z,11.15
2023-05-22T09:51:48.339Z,11.43
2023-05-22T09:54:18.752Z,11.43
2023-05-22T09:56:50.525Z,11.07
2023-05-22T09:59:22.428Z,12.57
2023-05-22T10:01:50.952Z,12.13
2023-05-22T10:04:21.743Z,12.50
2023-05-22T10:06:53.651Z,11.68
2023-05-22T10:09:31.238Z,11.77
2023-05-22T10:12:04.456Z,12.18
2023-05-22T10:14:32.059Z,14.40
2023-05-22T10:17:03.086Z,13.30
2023-05-22T10:19:32.636Z,14.55
2023-05-22T10:22:01.790Z,13.40
2023-05-22T10:24:29.941Z,13.13
2023-05-22T10:26:57.804Z,11.35
2023-05-22T10:29:47.330Z,12.68
2023-05-22T10:32:27.653Z,12.75
2023-05-22T10:35:19.849Z,10.98
2023-05-22T10:38:08.605Z,11.57
2023-05-22T10:40:36.406Z,11.23
2023-05-22T10:43:06.610Z,12.52
2023-05-22T10:45:33.561Z,11.07
2023-05-22T10:48:12.536Z,11.57
2023-05-22T10:50:40.782Z,12.27
2023-05-22T10:53:28.667Z,12.88
2023-05-22T10:55:57.433Z,12.82
2023-05-22T10:58:31.493Z,12.65
2023-05-22T11:01:16.318Z,13.57
2023-05-22T11:03:53.628Z,11.90
2023-05-22T11:06:45.770Z,12.85
2023-05-22T11:09:28.955Z,11.70
2023-05-22T11:12:24.162Z,12.80
2023-05-22T11:14:57.063Z,11.38
2023-05-22T11:17:29.185Z,12.30
2023-05-22T11:20:21.097Z,11.55
2023-05-22T11:23:06.832Z,11.38
2023-05-22T11:25:37.622Z,18.80
2023-05-22T11:28:06.547Z,18.98
2023-05-22T11:30:35.036Z,18.65
2023-05-22T11:33:02.620Z,21.88
2023-05-22T11:35:29.949Z,25.90
2023-05-22T11:37:57.000Z,29.90
2023-05-22T11:40:29.707Z,27.33
2023-05-22T11:42:57.250Z,30.70
2023-05-22T11:45:24.446Z,29.58
2023-05-22T11:47:51.859Z,28.50
2023-05-22T11:52:50.029Z,31.38
2023-05-22T11:55:16.916Z,36.13
2023-05-22T11:57:44.206Z,34.20
2023-05-22T12:00:11.873Z,37.53
2023-05-22T12:02:39.360Z,35.47
2023-05-22T12:05:10.151Z,41.38
2023-05-22T12:07:37.617Z,34.88
2023-05-22T12:10:07.250Z,35.78
2023-05-22T12:12:34.498Z,36.10
2023-05-22T12:15:04.613Z,39.67
2023-05-22T12:17:31.534Z,33.97
2023-05-22T12:20:01.830Z,38.22
2023-05-22T12:22:29.819Z,40.80
2023-05-22T12:24:56.768Z,36.95
2023-05-22T12:27:23.691Z,36.45
2023-05-22T12:29:52.937Z,39.03
2023-05-22T12:32:22.235Z,37.25
2023-05-22T12:34:50.295Z,37.00
2023-05-22T12:37:28.618Z,37.53
2023-05-22T12:40:00.855Z,33.63
2023-05-22T12:42:28.834Z,36.05
2023-05-22T12:44:58.189Z,36.88
2023-05-22T12:47:25.625Z,37.13
2023-05-22T12:49:53.049Z,37.63
2023-05-22T12:52:20.334Z,34.33
2023-05-22T12:54:47.314Z,33.88
2023-05-22T12:57:14.312Z,31.70
2023-05-22T12:59:41.207Z,32.80
2023-05-22T13:02:09.644Z,31.77
2023-05-22T13:04:36.769Z,32.08
2023-05-22T13:07:03.975Z,33.55
2023-05-22T13:09:31.051Z,35.95
2023-05-22T13:11:57.942Z,35.67
2023-05-22T13:14:25.025Z,35.75
2023-05-22T13:16:52.003Z,39.83
2023-05-22T13:19:19.124Z,36.63
2023-05-22T13:21:46.054Z,39.20
2023-05-22T13:24:12.911Z,34.28
2023-05-22T13:26:39.729Z,35.55
2023-05-22T13:29:06.608Z,20.58
2023-05-22T13:31:37.199Z,11.50
2023-05-22T13:34:04.728Z,10.80
2023-05-22T13:36:32.077Z,8.80
2023-05-22T13:38:59.061Z,9.63
2023-05-22T13:41:26.219Z,8.02
2023-05-22T13:43:53.310Z,8.77
2023-05-22T13:46:22.238Z,11.60
2023-05-22T13:48:49.384Z,5.85
2023-05-22T13:51:16.653Z,7.32
2023-05-22T13:53:43.563Z,6.70
2023-05-22T13:56:10.660Z,7.22
2023-05-22T13:58:37.552Z,7.05
2023-05-22T14:01:04.517Z,5.68
2023-05-22T14:03:31.597Z,5.85
2023-05-22T14:05:58.703Z,7.68
2023-05-22T14:08:25.807Z,6.30
2023-05-22T14:10:53.106Z,5.95
2023-05-22T14:13:20.004Z,7.28
2023-05-22T14:15:47.180Z,8.18
2023-05-22T14:18:16.397Z,5.18
2023-05-22T14:20:45.075Z,8.30
2023-05-22T14:23:15.244Z,7.45
2023-05-22T14:25:45.116Z,7.40
2023-05-22T14:28:12.559Z,7.68
2023-05-22T14:30:39.808Z,6.72
2023-05-22T14:33:07.202Z,7.85
2023-05-22T14:35:34.644Z,7.65
2023-05-22T14:38:06.839Z,10.32
2023-05-22T14:40:33.749Z,7.40
2023-05-22T14:43:00.611Z,8.43
2023-05-22T14:45:27.455Z,8.43
2023-05-22T14:47:55.085Z,9.35
2023-05-22T14:50:22.083Z,7.78
2023-05-22T14:52:49.824Z,9.13
2023-05-22T14:55:17.376Z,8.15
2023-05-22T14:57:44.375Z,7.88
2023-05-22T15:00:12.272Z,8.23
2023-05-22T15:02:40.354Z,8.98
2023-05-22T15:05:10.661Z,9.23
2023-05-22T15:10:09.281Z,10.00
2023-05-22T15:12:36.389Z,10.13
2023-05-22T15:15:03.546Z,11.60
2023-05-22T15:17:30.631Z,8.80
2023-05-22T15:19:57.561Z,8.60
2023-05-22T15:22:24.412Z,10.35
2023-05-22T15:25:07.975Z,8.10
2023-05-22T15:27:36.040Z,8.80
2023-05-22T15:30:05.662Z,6.75
2023-05-22T15:32:33.171Z,8.32
2023-05-22T15:35:00.384Z,7.22
2023-05-22T15:37:29.732Z,6.40
2023-05-22T15:39:58.364Z,7.43
2023-05-22T15:42:25.426Z,7.93
2023-05-22T15:44:52.260Z,7.63
2023-05-22T15:47:19.345Z,7.82
2023-05-22T15:49:46.228Z,6.82
2023-05-22T15:52:13.299Z,6.70
2023-05-22T15:54:40.235Z,10.05
2023-05-22T15:57:07.137Z,7.05
2023-05-22T15:59:34.082Z,7.00
2023-05-22T16:02:00.983Z,8.88
2023-05-22T16:04:28.197Z,7.65
2023-05-22T16:06:55.085Z,9.25
2023-05-22T16:09:22.158Z,7.53
2023-05-22T16:11:49.243Z,10.65
2023-05-22T16:14:16.165Z,8.45
2023-05-22T16:16:43.759Z,7.60
2023-05-22T16:19:11.416Z,12.25
2023-05-22T16:21:39.128Z,7.15
2023-05-22T16:24:06.966Z,8.43
2023-05-22T16:26:34.014Z,7.80
2023-05-22T16:29:01.006Z,9.35
2023-05-22T16:31:28.910Z,8.13
2023-05-22T16:33:55.948Z,6.95
2023-05-22T16:36:24.162Z,7.70
2023-05-22T16:38:52.598Z,6.57
2023-05-22T16:41:19.460Z,8.35
2023-05-22T16:43:46.868Z,8.75
2023-05-22T16:46:13.737Z,9.57
2023-05-22T16:48:40.622Z,12.05
2023-05-22T16:51:07.917Z,9.15
2023-05-22T16:53:37.335Z,13.43
2023-05-22T16:56:05.412Z,16.30
2023-05-22T16:58:35.082Z,14.27
2023-05-22T17:01:02.148Z,14.77
2023-05-22T17:03:29.307Z,18.85
2023-05-22T17:05:56.402Z,17.38
2023-05-22T17:08:23.238Z,17.77
2023-05-22T17:10:50.632Z,17.50
2023-05-22T17:13:20.777Z,16.92
2023-05-22T17:15:49.384Z,19.48
2023-05-22T17:18:19.666Z,22.77
2023-05-22T17:20:49.479Z,22.40
2023-05-22T17:23:17.090Z,21.92
2023-05-22T17:25:46.389Z,24.08
2023-05-22T17:28:14.733Z,25.30
2023-05-22T17:30:43.201Z,28.40
2023-05-22T17:33:11.226Z,32.00
2023-05-22T17:35:38.632Z,30.08
2023-05-22T17:38:07.784Z,31.73
2023-05-22T17:40:44.223Z,33.28
2023-05-22T17:43:12.253Z,31.95
2023-05-22T17:45:39.305Z,34.63
2023-05-22T17:48:08.012Z,38.00
2023-05-22T17:50:35.416Z,33.00
2023-05-22T17:53:02.373Z,34.40
2023-05-22T17:55:29.281Z,39.42
2023-05-22T17:57:56.364Z,39.25
2023-05-22T18:14:30.230Z,42.78
2023-05-22T18:16:58.200Z,45.30
2023-05-22T18:19:25.136Z,40.83
2023-05-22T18:21:53.532Z,42.85
2023-05-22T18:24:25.970Z,45.92
2023-05-22T18:26:52.837Z,49.35
2023-05-22T18:29:19.798Z,48.75
2023-05-22T18:31:46.713Z,44.65
2023-05-22T18:34:13.715Z,47.83
2023-05-22T18:36:41.264Z,48.15
2023-05-22T18:39:09.222Z,45.97
2023-05-22T18:41:37.237Z,39.25
2023-05-22T18:44:04.366Z,35.08
2023-05-22T18:46:31.594Z,26.55
2023-05-22T18:48:58.470Z,26.58
2023-05-22T18:51:27.033Z,20.67
2023-05-22T18:53:53.883Z,19.40
2023-05-22T18:56:21.177Z,22.07
2023-05-22T18:58:48.058Z,16.02
2023-05-22T19:01:16.592Z,13.37
2023-05-22T19:03:43.794Z,13.50
2023-05-22T19:06:10.763Z,12.73
2023-05-22T19:08:37.633Z,11.07
2023-05-22T19:11:04.511Z,10.77
2023-05-22T19:13:31.495Z,11.53
2023-05-22T19:15:58.359Z,12.20
2023-05-22T19:18:27.318Z,13.47
2023-05-22T19:20:54.160Z,10.90
2023-05-22T19:23:21.252Z,10.57
2023-05-22T19:25:48.778Z,16.17
2023-05-22T19:28:15.590Z,12.70
2023-05-22T19:30:43.073Z,13.00
2023-05-22T19:33:11.334Z,15.60
2023-05-22T19:35:38.604Z,15.60
2023-05-22T19:38:06.072Z,12.83
2023-05-22T19:40:33.178Z,14.20
2023-05-22T19:43:01.730Z,15.03
2023-05-22T19:45:28.917Z,14.00
2023-05-22T19:47:55.977Z,12.77
2023-05-22T19:50:23.152Z,13.30
2023-05-22T19:52:50.257Z,12.80
2023-05-22T19:55:17.632Z,15.37
2023-05-22T19:57:44.734Z,13.40
2023-05-22T20:00:12.879Z,16.87
2023-05-22T20:02:40.041Z,13.60
2023-05-22T20:05:09.405Z,13.57
2023-05-22T20:07:36.709Z,12.00
2023-05-22T20:10:06.448Z,13.70
2023-05-22T20:12:33.916Z,16.07
2023-05-22T20:15:02.610Z,13.77
2023-05-22T20:17:30.301Z,14.03
2023-05-22T20:20:00.308Z,15.23
2023-05-22T20:22:27.775Z,14.13
2023-05-22T20:24:54.728Z,14.40
2023-05-22T20:27:21.657Z,15.10
2023-05-22T20:29:51.232Z,19.43
2023-05-22T20:32:18.232Z,13.97
2023-05-22T20:34:46.363Z,13.40
2023-05-22T20:37:13.646Z,13.53
2023-05-22T20:39:41.686Z,15.53
2023-05-22T20:42:09.384Z,16.90
2023-05-22T20:44:36.595Z,15.30
2023-05-22T20:47:04.212Z,14.97
2023-05-22T20:49:34.525Z,13.53
2023-05-22T20:52:02.843Z,14.40
2023-05-22T20:54:34.020Z,14.77
2023-05-22T20:57:02.054Z,13.73
2023-05-22T20:59:29.054Z,13.40
2023-05-22T21:01:57.701Z,14.37
2023-05-22T21:04:25.651Z,15.33
2023-05-22T21:06:52.853Z,17.13
2023-05-22T21:09:20.009Z,15.03
2023-05-22T21:11:47.118Z,17.27
2023-05-22T21:14:14.454Z,16.77
2023-05-22T21:16:41.341Z,18.07
2023-05-22T21:19:08.605Z,19.80
2023-05-22T21:21:41.611Z,18.30
2023-05-22T21:24:09.838Z,20.40
2023-05-22T21:26:37.066Z,18.37
2023-05-22T21:29:04.582Z,20.10
2023-05-22T21:31:33.887Z,20.63
2023-05-22T21:34:02.467Z,16.63
2023-05-22T21:36:29.325Z,19.97
2023-05-22T21:38:57.657Z,17.13
2023-05-22T21:41:24.528Z,19.13
2023-05-22T21:43:51.491Z,19.80
2023-05-22T21:46:18.386Z,19.43
2023-05-22T21:48:46.122Z,16.97
2023-05-22T21:51:12.993Z,19.03
2023-05-22T21:53:39.958Z,20.60
2023-05-22T21:56:08.180Z,24.47
2023-05-22T21:58:35.294Z,20.47
2023-05-22T22:01:02.379Z,18.07
2023-05-22T22:03:29.359Z,16.57
2023-05-22T22:05:56.369Z,19.73
2023-05-22T22:08:23.442Z,18.40
2023-05-22T22:10:50.774Z,20.63
2023-05-22T22:13:17.609Z,20.17
2023-05-22T22:15:44.482Z,19.40
2023-05-22T22:18:14.845Z,19.23
2023-05-22T22:20:45.099Z,17.87
2023-05-22T22:23:12.885Z,20.40
2023-05-22T22:25:40.046Z,20.23
2023-05-22T22:28:07.360Z,16.43
2023-05-22T22:30:35.090Z,20.60
2023-05-22T22:33:02.469Z,19.33
2023-05-22T22:35:29.534Z,19.20
2023-05-22T22:37:56.529Z,18.53
2023-05-22T22:40:25.332Z,18.27
2023-05-22T22:42:53.447Z,19.67
2023-05-22T22:45:20.886Z,19.20
2023-05-22T22:47:48.156Z,19.83
2023-05-22T22:50:15.045Z,21.43
2023-05-22T22:52:45.644Z,17.53
2023-05-22T22:55:13.374Z,16.77
2023-05-22T22:57:44.528Z,19.80
2023-05-22T23:00:13.255Z,16.63
2023-05-22T23:02:40.862Z,16.63
2023-05-22T23:05:08.780Z,18.43
2023-05-22T23:07:36.490Z,17.70
2023-05-22T23:10:03.766Z,20.83
2023-05-22T23:12:35.023Z,17.60
2023-05-22T23:15:02.934Z,18.70
2023-05-22T23:17:30.090Z,14.03
2023-05-22T23:19:57.233Z,18.17
2023-05-22T23:22:24.227Z,13.80
2023-05-22T23:24:51.393Z,14.93
2023-05-22T23:27:18.636Z,15.70
2023-05-22T23:29:45.801Z,16.07
2023-05-22T23:32:14.679Z,16.67
2023-05-22T23:34:42.259Z,16.13
2023-05-22T23:37:09.737Z,14.80
2023-05-22T23:39:36.603Z,15.87
2023-05-22T23:42:03.754Z,14.53
2023-05-22T23:44:31.631Z,16.67
2023-05-22T23:46:58.726Z,13.23
2023-05-22T23:49:26.349Z,14.50
2023-05-22T23:51:53.320Z,14.73
2023-05-22T23:54:20.546Z,13.63
2023-05-22T23:56:47.557Z,14.27
2023-05-22T23:59:14.745Z,11.00
